Time;durP1;ratioP1;P1;durP2;ratioP2;P2;SDS_P1;SDS_P2;PMS_P1;PMS_P2;Temp;Humidity;BMP_temperature;BMP_pressure;BME280_temperature;BME280_humidity;BME280_pressure;Samples;Min_cycle;Max_cycle;Signal;HPM_P1;HPM_P2
2022/10/28 00:01:48;;;;;;;9.23;6.40;;;14.20;99.90;;;14.26;95.03;101690.25;4911428;29;20491;-69
2022/10/28 00:04:18;;;;;;;9.30;6.37;;;14.20;99.90;;;14.37;94.04;101693.44;4892408;29;20450;-70
2022/10/28 00:06:49;;;;;;;8.83;7.30;;;14.20;99.90;;;14.40;93.78;101698.47;4902583;29;20449;-70
2022/10/28 00:09:18;;;;;;;9.03;6.70;;;14.30;99.90;;;14.37;93.93;101693.44;4904727;29;20476;-69
2022/10/28 00:11:54;;;;;;;9.47;6.67;;;14.20;99.90;;;14.35;93.72;101699.91;4901078;29;20465;-68
2022/10/28 00:14:28;;;;;;;7.73;6.07;;;14.20;99.90;;;14.38;93.93;101700.56;4903567;29;20515;-70
2022/10/28 00:17:11;;;;;;;8.83;6.57;;;14.30;99.90;;;14.53;93.39;101714.81;4906598;29;20457;-70
2022/10/28 00:19:43;;;;;;;7.73;6.03;;;14.30;99.90;;;14.65;92.02;101715.88;4906674;29;20431;-67
2022/10/28 00:22:14;;;;;;;6.40;5.80;;;14.40;99.90;;;14.47;92.80;101721.09;4898379;29;20831;-68
2022/10/28 00:24:43;;;;;;;8.80;5.97;;;14.40;99.90;;;14.44;93.50;101711.44;4903808;29;20901;-68
2022/10/28 00:27:12;;;;;;;6.43;5.10;;;14.40;99.90;;;14.46;93.33;101708.53;4904965;29;20441;-69
2022/10/28 00:29:42;;;;;;;12.20;6.80;;;14.30;99.90;;;14.46;92.72;101708.53;4906073;29;20512;-68
2022/10/28 00:32:11;;;;;;;8.77;6.57;;;14.40;99.90;;;14.53;93.13;101704.75;4904912;29;20437;-70
2022/10/28 00:34:40;;;;;;;11.13;6.17;;;14.40;99.90;;;14.48;93.13;101709.13;4899869;29;20440;-69
2022/10/28 00:37:09;;;;;;;9.83;6.70;;;14.40;99.90;;;14.55;92.13;101712.72;4913890;29;20889;-68
2022/10/28 00:39:40;;;;;;;9.27;6.77;;;14.40;99.90;;;14.45;93.12;101701.41;4908982;29;20445;-69
2022/10/28 00:42:12;;;;;;;9.77;6.13;;;14.40;99.90;;;14.38;93.38;101695.13;4898783;29;20985;-69
2022/10/28 00:44:59;;;;;;;8.80;7.77;;;14.30;99.90;;;14.31;93.85;101700.50;4924040;29;20440;-71
2022/10/28 00:47:43;;;;;;;11.17;6.40;;;14.30;99.90;;;14.39;94.02;101696.78;4904127;29;21014;-69
2022/10/28 00:50:34;;;;;;;9.33;8.23;;;14.30;99.90;;;14.41;93.67;101687.38;4907409;29;20971;-71
2022/10/28 00:53:09;;;;;;;8.13;6.70;;;14.30;99.90;;;14.52;92.94;101691.38;4914258;29;20429;-70
2022/10/28 00:55:41;;;;;;;6.73;4.93;;;14.30;99.90;;;14.45;92.89;101688.63;4895091;29;20584;-69
2022/10/28 00:58:13;;;;;;;7.63;5.50;;;14.30;99.90;;;14.42;93.22;101685.50;4908979;29;20465;-70
2022/10/28 01:00:43;;;;;;;12.67;6.63;;;14.30;99.90;;;14.56;91.92;101687.16;4912298;29;20467;-70
2022/10/28 01:03:13;;;;;;;8.60;6.77;;;14.40;99.90;;;14.41;92.72;101691.97;4909348;29;20462;-70
2022/10/28 01:05:46;;;;;;;11.87;7.00;;;14.30;99.90;;;14.44;93.25;101688.81;4909137;29;20513;-69
2022/10/28 01:08:17;;;;;;;6.97;6.20;;;14.30;99.90;;;14.46;92.68;101675.84;4886610;29;20432;-69
2022/10/28 01:11:26;;;;;;;8.53;5.80;;;14.30;99.90;;;14.35;93.09;101664.50;4901580;29;20839;-69
2022/10/28 01:14:23;;;;;;;12.60;6.20;;;14.30;99.90;;;14.34;93.62;101679.16;4898600;29;20438;-69
2022/10/28 01:17:36;;;;;;;7.00;6.30;;;14.30;99.90;;;14.30;93.91;101672.44;4909528;29;20541;-68
2022/10/28 01:20:54;;;;;;;7.60;6.10;;;14.20;99.90;;;14.40;92.57;101671.22;4912457;29;20524;-69
2022/10/28 01:23:35;;;;;;;10.10;7.20;;;14.30;99.90;;;14.34;93.64;101668.25;4928729;29;20531;-69
2022/10/28 01:27:05;;;;;;;9.57;6.67;;;14.20;99.90;;;14.33;93.14;101663.84;4907693;29;20503;-69
2022/10/28 01:30:05;;;;;;;8.20;6.27;;;14.20;99.90;;;14.27;94.10;101672.03;4902578;29;20435;-69
2022/10/28 01:32:51;;;;;;;9.47;6.40;;;14.20;99.90;;;14.29;93.83;101662.59;4922074;29;20527;-69
2022/10/28 01:35:30;;;;;;;7.13;6.50;;;14.20;99.90;;;14.24;94.49;101654.22;4927459;29;20470;-69
2022/10/28 01:38:19;;;;;;;10.37;6.80;;;14.10;99.90;;;14.20;94.55;101661.13;4913461;29;20914;-68
2022/10/28 01:40:58;;;;;;;9.43;6.67;;;14.10;99.90;;;14.14;94.95;101663.81;4900958;29;20442;-68
2022/10/28 01:43:34;;;;;;;7.73;6.60;;;14.10;99.90;;;14.30;94.02;101661.56;4914864;29;20974;-69
2022/10/28 01:46:11;;;;;;;7.90;7.10;;;14.10;99.90;;;14.17;94.71;101655.25;4907432;29;20905;-69
2022/10/28 01:48:51;;;;;;;8.87;6.77;;;14.10;99.90;;;14.17;94.71;101653.38;4898124;29;20419;-69
2022/10/28 01:51:27;;;;;;;7.53;6.77;;;14.10;99.90;;;14.10;95.33;101648.97;4912682;29;20415;-69
2022/10/28 01:54:01;;;;;;;7.13;6.43;;;14.10;99.90;;;14.07;95.25;101655.66;4895863;29;21017;-69
2022/10/28 01:56:38;;;;;;;7.57;5.00;;;14.00;99.90;;;14.06;95.52;101653.97;4921441;29;20555;-69
2022/10/28 01:59:12;;;;;;;7.77;6.07;;;14.00;99.90;;;14.06;95.80;101643.09;4900914;29;20416;-68
2022/10/28 02:01:42;;;;;;;7.33;6.63;;;14.00;99.90;;;14.05;96.16;101641.41;4912365;29;20568;-69
2022/10/28 02:04:12;;;;;;;8.20;7.20;;;14.00;99.90;;;14.06;96.24;101645.81;4905017;29;20894;-68
2022/10/28 02:06:46;;;;;;;8.73;6.00;;;14.00;99.90;;;14.10;95.61;101643.50;4904426;29;20457;-70
2022/10/28 02:09:30;;;;;;;7.90;6.50;;;14.00;99.90;;;14.04;96.29;101638.94;4908375;29;20454;-69
2022/10/28 02:12:22;;;;;;;13.07;6.77;;;14.00;99.90;;;14.29;94.85;101638.09;4928729;29;20475;-69
2022/10/28 02:15:19;;;;;;;8.13;6.30;;;14.10;99.90;;;14.20;95.38;101633.91;4921271;29;20692;-68
2022/10/28 02:18:20;;;;;;;7.17;6.47;;;14.00;99.90;;;14.21;94.56;101632.03;4908592;29;20425;-69
2022/10/28 02:20:59;;;;;;;8.70;6.20;;;14.10;99.90;;;14.14;94.87;101631.16;4901340;29;20490;-67
2022/10/28 02:23:42;;;;;;;6.87;6.10;;;14.00;99.90;;;14.01;95.63;101629.28;4905888;29;20801;-69
2022/10/28 02:26:22;;;;;;;8.37;7.40;;;14.00;99.90;;;13.87;96.33;101628.41;4908579;29;20482;-69
2022/10/28 02:29:03;;;;;;;8.00;6.77;;;13.90;99.90;;;13.91;96.63;101628.84;4911689;29;20458;-69
2022/10/28 02:31:38;;;;;;;7.33;5.63;;;13.80;99.90;;;13.77;97.16;101636.13;4925100;29;20975;-67
2022/10/28 02:34:14;;;;;;;7.30;5.60;;;13.80;57.80;;;13.86;96.55;101643.06;4907992;29;20432;-68
2022/10/28 02:36:51;;;;;;;7.63;6.50;;;13.80;99.90;;;14.02;96.27;101639.13;4911203;29;20467;-69
2022/10/28 02:39:29;;;;;;;15.50;7.47;;;13.90;99.90;;;13.80;97.07;101640.31;4895027;29;20499;-69
2022/10/28 02:42:03;;;;;;;8.17;6.53;;;13.80;99.90;;;13.80;97.55;101637.59;4909986;29;20432;-69
2022/10/28 02:44:40;;;;;;;7.47;6.77;;;13.80;99.90;;;13.63;98.61;101630.84;4918118;29;20443;-69
2022/10/28 02:47:17;;;;;;;14.13;6.00;;;13.70;1.00;;;13.57;99.37;101624.34;4903275;29;21015;-68
2022/10/28 02:49:55;;;;;;;7.80;7.00;;;13.60;99.90;;;13.51;99.99;101627.06;4900478;29;20476;-69
2022/10/28 02:52:31;;;;;;;8.73;7.00;;;13.50;99.90;;;13.60;99.58;101631.28;4923115;29;20448;-69
2022/10/28 02:55:04;;;;;;;10.10;8.30;;;13.50;99.90;;;13.49;100.00;101629.97;4908379;29;20469;-69
2022/10/28 02:57:38;;;;;;;11.43;6.90;;;13.50;99.90;;;13.51;100.00;101637.94;4902792;29;20416;-69
2022/10/28 03:00:12;;;;;;;7.33;6.57;;;13.50;99.90;;;13.65;99.87;101639.66;4912184;29;20841;-68
2022/10/28 03:02:41;;;;;;;9.73;7.60;;;13.50;99.90;;;13.80;98.81;101643.03;4907092;29;20424;-69
2022/10/28 03:05:11;;;;;;;14.90;7.10;;;13.60;99.90;;;13.68;99.42;101639.25;4900977;29;20452;-69
2022/10/28 03:07:42;;;;;;;10.90;7.40;;;13.60;99.90;;;13.54;99.82;101634.81;4906667;29;20453;-67
2022/10/28 03:10:11;;;;;;;9.67;5.80;;;13.50;99.90;;;13.44;100.00;101627.03;4902731;29;20481;-69
2022/10/28 03:12:40;;;;;;;14.07;7.90;;;13.50;99.90;;;13.42;100.00;101635.38;4912731;29;20464;-68
2022/10/28 03:15:10;;;;;;;11.10;5.80;;;13.40;99.90;;;13.45;100.00;101629.56;4895459;29;20803;-68
2022/10/28 03:17:40;;;;;;;10.83;7.00;;;13.40;99.90;;;13.46;100.00;101630.34;4905350;29;20523;-69
2022/10/28 03:20:11;;;;;;;10.47;6.87;;;13.40;99.90;;;13.35;100.00;101623.66;4899930;29;20433;-68
2022/10/28 03:22:43;;;;;;;11.53;5.50;;;13.40;99.90;;;13.38;100.00;101617.78;4909581;29;20442;-68
2022/10/28 03:25:13;;;;;;;11.87;6.00;;;13.40;99.90;;;13.34;100.00;101621.97;4901182;29;20917;-69
2022/10/28 03:27:41;;;;;;;10.73;6.17;;;13.30;99.90;;;13.39;100.00;101624.06;4918729;29;20852;-68
2022/10/28 03:30:13;;;;;;;7.67;6.87;;;13.40;99.90;;;13.33;100.00;101619.44;4929163;29;20489;-69
2022/10/28 03:32:42;;;;;;;10.17;6.60;;;13.30;99.90;;;13.20;100.00;101619.38;4905439;29;20748;-69
2022/10/28 03:35:12;;;;;;;12.30;7.23;;;13.20;99.90;;;13.14;100.00;101631.06;4907811;29;20860;-68
2022/10/28 03:37:44;;;;;;;11.87;8.13;;;13.20;99.90;;;13.15;100.00;101630.88;4909378;29;20800;-68
2022/10/28 03:40:13;;;;;;;8.23;6.97;;;13.20;99.90;;;13.10;100.00;101630.59;4913568;29;20635;-69
2022/10/28 03:42:43;;;;;;;8.80;6.03;;;13.20;99.90;;;13.30;100.00;101642.44;4919439;29;20416;-68
2022/10/28 03:45:12;;;;;;;9.10;7.03;;;13.20;99.90;;;13.29;100.00;101642.63;4908891;29;20474;-70
2022/10/28 03:47:42;;;;;;;9.67;7.03;;;13.30;99.90;;;13.22;100.00;101634.44;4913598;29;20429;-71
2022/10/28 03:50:11;;;;;;;12.70;7.17;;;13.30;99.90;;;13.21;100.00;101635.50;4913218;29;20449;-68
2022/10/28 03:52:44;;;;;;;7.33;6.57;;;13.20;99.90;;;13.27;100.00;101640.13;4905431;29;20448;-70
2022/10/28 03:55:13;;;;;;;7.50;5.53;;;13.20;99.90;;;13.30;100.00;101647.88;4908591;29;20881;-69
2022/10/28 03:57:42;;;;;;;9.93;6.93;;;13.30;99.90;;;13.27;100.00;101640.13;4914242;29;20544;-70
2022/10/28 04:00:13;;;;;;;11.60;6.90;;;13.30;99.90;;;13.16;100.00;101635.28;4922631;29;20933;-69
2022/10/28 04:02:42;;;;;;;7.63;6.83;;;13.20;99.90;;;13.11;100.00;101626.88;4916147;29;21015;-71
2022/10/28 04:05:11;;;;;;;10.50;6.67;;;13.10;99.90;;;13.03;100.00;101624.28;4918455;29;20820;-69
2022/10/28 04:07:40;;;;;;;14.07;7.90;;;13.10;99.90;;;12.95;100.00;101619.00;4920966;29;20767;-69
2022/10/28 04:10:11;;;;;;;9.53;7.53;;;13.00;99.90;;;12.96;100.00;101617.97;4915208;29;20791;-69
2022/10/28 04:12:40;;;;;;;12.40;7.40;;;13.00;99.90;;;13.02;100.00;101622.63;4911942;29;20458;-69
2022/10/28 04:15:10;;;;;;;12.07;6.90;;;13.00;99.90;;;12.93;100.00;101624.63;4908656;29;20465;-68
2022/10/28 04:17:39;;;;;;;12.07;6.80;;;13.00;99.90;;;12.89;100.00;101627.94;4903872;29;21002;-69
2022/10/28 04:20:10;;;;;;;9.00;8.20;;;12.90;99.90;;;12.93;100.00;101637.38;4927790;29;20557;-69
2022/10/28 04:22:39;;;;;;;8.40;7.60;;;12.90;99.90;;;12.96;100.00;101634.28;4921148;29;20441;-67
2022/10/28 04:25:10;;;;;;;10.90;6.70;;;12.90;99.90;;;12.88;100.00;101642.56;4924770;29;20527;-69
2022/10/28 04:27:39;;;;;;;7.43;6.70;;;12.90;99.90;;;12.83;100.00;101634.22;4909215;29;20424;-70
2022/10/28 04:30:11;;;;;;;11.80;8.13;;;12.80;99.90;;;12.99;100.00;101633.88;4927256;29;20425;-69
2022/10/28 04:32:41;;;;;;;13.30;8.00;;;12.90;99.90;;;12.81;100.00;101628.97;4911839;29;20489;-70
2022/10/28 04:35:11;;;;;;;12.70;8.63;;;12.80;99.90;;;12.70;100.00;101618.63;4918472;29;20532;-68
2022/10/28 04:37:42;;;;;;;15.80;7.73;;;12.70;99.90;;;12.68;100.00;101614.47;4915072;29;20494;-69
2022/10/28 04:40:13;;;;;;;7.70;6.90;;;12.70;99.90;;;12.72;100.00;101618.47;4921054;29;20428;-69
2022/10/28 04:42:42;;;;;;;12.57;8.50;;;12.70;99.90;;;12.72;100.00;101626.59;4919926;29;20415;-70
2022/10/28 04:45:11;;;;;;;9.93;6.70;;;12.70;99.90;;;12.59;100.00;101621.91;4902466;29;20437;-69
2022/10/28 04:47:40;;;;;;;9.10;7.63;;;12.60;99.90;;;12.55;100.00;101618.75;4911731;29;20437;-70
2022/10/28 04:50:10;;;;;;;12.60;8.47;;;12.60;99.90;;;12.49;100.00;101616.81;4910843;29;20429;-68
2022/10/28 04:52:39;;;;;;;11.70;8.50;;;12.50;99.90;;;12.52;100.00;101605.59;4908182;29;20516;-69
2022/10/28 04:55:09;;;;;;;9.07;7.80;;;12.60;99.90;;;12.48;100.00;101609.72;4915784;29;20546;-69
2022/10/28 04:57:39;;;;;;;8.47;6.80;;;12.50;99.90;;;12.57;100.00;101608.53;4918386;29;20876;-69
2022/10/28 05:00:11;;;;;;;8.63;7.90;;;12.60;99.90;;;12.50;100.00;101609.50;4916701;29;20546;-70
2022/10/28 05:02:40;;;;;;;11.43;8.23;;;12.50;99.90;;;12.46;100.00;101602.81;4904374;29;20439;-69
2022/10/28 05:05:14;;;;;;;11.47;8.37;;;12.50;99.90;;;12.55;100.00;101610.59;4921733;29;21037;-70
2022/10/28 05:07:48;;;;;;;10.67;8.47;;;12.60;99.90;;;12.52;100.00;101610.16;4911454;29;20443;-71
2022/10/28 05:10:17;;;;;;;11.70;7.03;;;12.50;99.90;;;12.46;100.00;101600.94;5086688;23;21050;-69
2022/10/28 05:12:47;;;;;;;8.63;7.33;;;12.50;99.90;;;12.56;100.00;101601.44;4937198;29;20470;-69
2022/10/28 05:15:16;;;;;;;9.13;8.10;;;12.60;99.90;;;12.54;100.00;101602.66;4937421;29;20825;-69
2022/10/28 05:17:47;;;;;;;10.43;7.93;;;12.60;99.90;;;12.47;100.00;101597.19;4927080;29;20499;-70
2022/10/28 05:20:18;;;;;;;10.90;8.30;;;12.50;99.90;;;12.46;100.00;101600.94;4931715;29;20406;-69
2022/10/28 05:22:48;;;;;;;13.43;7.63;;;12.50;99.90;;;12.56;100.00;101606.84;4939123;28;20408;-69
2022/10/28 05:25:17;;;;;;;10.20;7.73;;;12.60;99.90;;;12.50;100.00;101587.78;4938342;23;20502;-72
2022/10/28 05:27:48;;;;;;;9.90;7.97;;;12.50;99.90;;;12.54;100.00;101589.91;4879180;29;20406;-72
2022/10/28 05:30:17;;;;;;;10.30;7.60;;;12.50;99.90;;;12.61;100.00;101587.25;4880540;29;20817;-71
2022/10/28 05:32:46;;;;;;;8.23;7.20;;;12.60;99.90;;;12.70;100.00;101590.66;4881447;29;20763;-72
2022/10/28 05:35:19;;;;;;;12.60;7.60;;;12.60;99.90;;;12.67;100.00;101591.91;4883531;29;20881;-71
2022/10/28 05:37:47;;;;;;;13.23;9.10;;;12.60;99.90;;;12.74;100.00;101591.91;4871947;29;20445;-71
2022/10/28 05:40:16;;;;;;;11.37;8.40;;;12.70;99.90;;;12.80;100.00;101589.25;4887343;29;20452;-72
2022/10/28 05:42:45;;;;;;;13.43;8.83;;;12.70;99.90;;;12.92;100.00;101589.53;4884485;29;20417;-71
2022/10/28 05:45:15;;;;;;;12.50;7.50;;;12.80;99.90;;;12.96;100.00;101588.09;4890060;29;20529;-72
2022/10/28 05:47:45;;;;;;;11.40;8.63;;;12.80;99.90;;;13.02;100.00;101595.44;4885271;29;20436;-71
2022/10/28 05:50:16;;;;;;;21.70;15.63;;;12.90;99.90;;;13.10;100.00;101584.41;4882890;29;20690;-72
2022/10/28 05:52:47;;;;;;;15.30;8.67;;;13.00;99.90;;;13.06;100.00;101580.41;4866789;29;20786;-71
2022/10/28 05:55:18;;;;;;;9.97;8.20;;;13.00;99.90;;;13.12;100.00;101573.38;4868664;29;20866;-73
2022/10/28 05:57:47;;;;;;;11.83;8.90;;;13.00;99.90;;;13.15;100.00;101579.22;4876548;29;20470;-73
2022/10/28 06:00:20;;;;;;;15.47;8.70;;;13.00;99.90;;;13.36;100.00;101575.56;4885546;29;20474;-73
2022/10/28 06:02:49;;;;;;;8.60;7.60;;;13.20;99.90;;;13.54;100.00;101578.53;4879893;29;20440;-73
2022/10/28 06:05:18;;;;;;;13.87;7.50;;;13.30;99.90;;;13.74;100.00;101578.59;4879602;29;20437;-72
2022/10/28 06:07:47;;;;;;;12.83;7.60;;;13.40;99.90;;;13.63;100.00;101577.31;4883726;29;20443;-73
2022/10/28 06:10:15;;;;;;;12.63;7.60;;;13.50;99.90;;;13.58;100.00;101579.81;4887835;29;20425;-72
2022/10/28 06:12:44;;;;;;;14.53;7.70;;;13.40;99.90;;;13.61;100.00;101573.94;4875659;29;20410;-73
2022/10/28 06:15:14;;;;;;;10.17;7.17;;;13.50;99.90;;;13.61;100.00;101562.22;4893852;29;20477;-72
2022/10/28 06:17:48;;;;;;;9.80;7.07;;;13.50;99.90;;;13.70;100.00;101558.28;4882155;29;20533;-72
2022/10/28 06:20:19;;;;;;;12.20;8.13;;;13.50;99.90;;;13.63;100.00;101557.41;4886157;29;20439;-72
2022/10/28 06:22:49;;;;;;;8.60;6.80;;;13.50;99.90;;;13.70;100.00;101558.28;4898087;29;20448;-71
2022/10/28 06:25:21;;;;;;;15.70;8.43;;;13.50;99.90;;;13.82;100.00;101564.78;4890218;29;20453;-73
2022/10/28 06:27:53;;;;;;;11.10;8.70;;;13.60;99.90;;;13.90;100.00;101570.00;4891486;29;20413;-72
2022/10/28 06:30:23;;;;;;;10.20;8.30;;;13.70;99.90;;;13.97;99.38;101567.31;4895745;29;20485;-72
2022/10/28 06:32:56;;;;;;;13.83;7.50;;;13.80;99.90;;;13.83;100.00;101569.19;4898275;29;20453;-72
2022/10/28 06:35:25;;;;;;;10.83;6.80;;;13.70;99.90;;;13.80;100.00;101562.25;4903537;29;20437;-73
2022/10/28 06:37:57;;;;;;;12.33;7.37;;;13.70;99.90;;;13.81;100.00;101566.66;4896197;29;20485;-71
2022/10/28 06:40:28;;;;;;;7.60;6.80;;;13.70;99.90;;;13.77;100.00;101561.84;4878412;29;20977;-73
2022/10/28 06:43:00;;;;;;;8.80;6.93;;;13.70;99.90;;;13.76;100.00;101565.59;4893973;29;20431;-71
2022/10/28 06:45:29;;;;;;;10.80;6.63;;;13.70;99.90;;;13.80;100.00;101558.69;4876387;29;20917;-71
2022/10/28 06:48:02;;;;;;;9.43;7.53;;;13.60;99.90;;;14.04;99.10;101558.09;4896395;29;20504;-74
2022/10/28 06:50:33;;;;;;;13.00;7.53;;;13.80;99.90;;;14.02;99.10;101552.03;4889256;29;20432;-74
2022/10/28 06:53:03;;;;;;;7.73;6.70;;;13.80;99.90;;;14.17;98.26;101552.66;4898121;29;20420;-72
2022/10/28 06:55:32;;;;;;;8.20;7.03;;;13.90;99.90;;;14.28;97.23;101568.34;4900509;29;20441;-73
2022/10/28 06:58:02;;;;;;;9.37;7.03;;;14.00;99.90;;;14.38;96.29;101575.31;4896050;29;20445;-73
2022/10/28 07:00:33;;;;;;;11.90;7.03;;;14.10;99.90;;;14.21;96.91;101569.41;4889081;29;20449;-74
2022/10/28 07:03:04;;;;;;;9.13;6.63;;;14.10;99.90;;;14.37;96.23;101562.75;4893439;29;20833;-73
2022/10/28 07:05:32;;;;;;;12.73;7.33;;;14.20;99.90;;;14.35;96.82;101571.91;4888004;29;20487;-74
2022/10/28 07:08:01;;;;;;;11.80;7.57;;;14.20;99.90;;;14.52;95.87;101582.41;4889251;29;20409;-72
2022/10/28 07:10:30;;;;;;;10.20;7.33;;;14.30;99.90;;;14.60;95.42;101593.09;4887686;29;20822;-73
2022/10/28 07:12:58;;;;;;;14.93;6.50;;;14.40;99.90;;;14.72;94.54;101585.91;4884071;29;20414;-73
2022/10/28 07:15:27;;;;;;;13.30;8.67;;;14.50;99.90;;;14.77;94.04;101586.97;4893634;29;20437;-72
2022/10/28 07:17:58;;;;;;;11.33;7.73;;;14.50;99.90;;;14.89;92.83;101578.13;4880021;29;20612;-73
2022/10/28 07:20:30;;;;;;;8.23;6.97;;;14.60;99.90;;;15.03;92.62;101568.88;4875913;29;20413;-73
2022/10/28 07:23:01;;;;;;;10.80;7.00;;;14.70;99.90;;;15.30;91.00;101577.78;4878275;29;20405;-72
2022/10/28 07:25:31;;;;;;;9.80;7.20;;;14.90;99.90;;;15.33;90.00;101574.63;4877201;29;20449;-73
2022/10/28 07:28:01;;;;;;;18.50;7.30;;;15.00;99.90;;;15.37;89.70;101570.41;4878780;29;20410;-72
2022/10/28 07:30:31;;;;;;;9.60;7.47;;;15.10;99.90;;;15.64;88.49;101566.50;4872408;29;20984;-72
2022/10/28 07:33:00;;;;;;;13.93;6.67;;;15.20;99.90;;;15.84;86.85;101578.13;4892408;29;20798;-72
2022/10/28 07:35:31;;;;;;;8.77;6.27;;;15.40;99.90;;;16.01;85.85;101584.75;4887725;29;20974;-72
2022/10/28 07:38:00;;;;;;;12.20;6.40;;;15.60;99.90;;;16.27;84.55;101601.97;4888877;29;20474;-73
2022/10/28 07:40:29;;;;;;;9.03;5.93;;;15.80;99.90;;;16.36;83.54;101598.72;4884227;29;20542;-72
2022/10/28 07:42:58;;;;;;;13.53;6.60;;;15.90;1.00;;;16.52;83.15;101580.94;4890273;29;20491;-71
2022/10/28 07:45:27;;;;;;;6.47;5.57;;;16.00;1.00;;;16.69;81.69;101579.34;4889043;29;20501;-72
2022/10/28 07:47:56;;;;;;;9.67;6.60;;;16.20;1.00;;;16.81;81.77;101572.06;4889169;29;21203;-75
2022/10/28 07:50:25;;;;;;;8.93;5.80;;;16.30;1.00;;;17.06;79.79;101574.72;4887876;29;20428;-73
2022/10/28 07:52:55;;;;;;;7.70;6.17;;;16.50;99.90;;;17.35;78.09;101597.72;4864908;29;20422;-72
2022/10/28 07:55:24;;;;;;;7.83;5.10;;;16.80;99.90;;;17.44;77.77;101596.31;4887666;29;20468;-72
2022/10/28 07:57:53;;;;;;;10.90;6.40;;;17.00;1.00;;;17.46;78.16;101587.91;4890277;29;20440;-71
2022/10/28 08:00:23;;;;;;;10.47;7.60;;;17.00;53.00;;;17.43;78.15;101575.50;4884902;29;20414;-73
2022/10/28 08:02:51;;;;;;;8.03;5.87;;;17.00;99.90;;;17.49;77.58;101571.84;4890783;29;20473;-72
2022/10/28 08:05:20;;;;;;;9.13;6.17;;;17.00;1.00;;;17.66;77.24;101572.91;4888350;29;20836;-73
2022/10/28 08:07:49;;;;;;;9.10;6.37;;;17.20;10.00;;;18.21;73.86;101580.88;4881642;29;20546;-72
2022/10/28 08:10:19;;;;;;;8.93;6.50;;;17.60;99.90;;;18.22;73.64;101575.19;4865359;29;20481;-72
2022/10/28 08:12:48;;;;;;;7.50;5.80;;;17.70;99.90;;;18.27;73.39;101596.41;4882674;29;20543;-71
2022/10/28 08:15:17;;;;;;;7.80;6.07;;;17.70;99.90;;;18.25;73.29;101598.53;4869059;29;20685;-73
2022/10/28 08:17:52;;;;;;;8.90;7.40;;;17.70;99.90;;;18.22;73.40;101604.47;4887637;29;20793;-74
2022/10/28 08:20:21;;;;;;;6.93;5.70;;;17.70;99.90;;;18.18;73.58;101600.56;4877611;29;20466;-72
2022/10/28 08:22:50;;;;;;;8.33;6.20;;;17.80;99.90;;;18.10;74.80;101603.63;4879829;29;20440;-73
2022/10/28 08:25:21;;;;;;;6.97;6.27;;;17.70;99.90;;;18.12;74.27;101593.25;4878829;29;20511;-71
2022/10/28 08:27:50;;;;;;;8.30;5.77;;;17.70;99.90;;;18.22;73.43;101582.56;4883194;29;20494;-73
2022/10/28 08:30:18;;;;;;;8.00;5.73;;;17.80;99.90;;;18.24;73.56;101569.47;4875850;29;20451;-71
2022/10/28 08:32:47;;;;;;;6.40;5.83;;;17.90;99.90;;;18.40;73.13;101589.84;4878942;29;20508;-72
2022/10/28 08:35:16;;;;;;;10.73;5.43;;;18.00;99.90;;;18.66;72.66;101606.72;4879328;29;20467;-72
2022/10/28 08:37:51;;;;;;;6.80;5.30;;;18.20;99.90;;;18.48;73.33;101625.97;4889703;29;20410;-73
2022/10/28 08:40:42;;;;;;;7.83;4.63;;;18.20;99.90;;;18.40;73.08;101628.22;4886886;29;20429;-73
2022/10/28 08:43:25;;;;;;;8.57;5.67;;;18.20;99.90;;;18.09;74.26;101621.97;4884280;29;20522;-72
2022/10/28 08:46:26;;;;;;;8.17;5.73;;;17.80;99.90;;;17.90;74.89;101609.41;4886181;29;20458;-72
2022/10/28 08:48:55;;;;;;;6.87;5.20;;;17.70;99.90;;;17.99;75.32;101604.44;4881596;29;20409;-73
2022/10/28 08:51:38;;;;;;;11.87;6.83;;;17.70;99.90;;;17.89;75.31;101613.22;4883312;29;20859;-72
2022/10/28 08:54:18;;;;;;;13.17;6.93;;;17.70;99.90;;;18.07;75.37;101606.81;4879865;29;20434;-72
2022/10/28 08:56:53;;;;;;;8.57;5.43;;;17.70;99.90;;;18.19;75.07;101594.00;4883651;29;20437;-72
2022/10/28 08:59:29;;;;;;;6.03;4.90;;;17.80;99.90;;;18.45;73.77;101595.44;4891160;29;20794;-72
2022/10/28 09:02:04;;;;;;;7.90;5.30;;;18.00;99.90;;;18.91;71.33;101597.41;4893160;29;20517;-71
2022/10/28 09:04:40;;;;;;;11.50;5.20;;;18.30;99.90;;;19.05;71.43;101616.09;4889746;29;20448;-73
2022/10/28 09:07:17;;;;;;;6.20;5.00;;;18.50;99.90;;;19.26;68.83;101605.56;4894653;29;20883;-72
2022/10/28 09:09:47;;;;;;;9.47;5.57;;;18.70;99.90;;;19.20;69.88;101612.84;4883168;29;20439;-71
2022/10/28 09:12:35;;;;;;;6.90;5.23;;;18.80;99.90;;;19.23;69.67;101595.06;4879116;29;20537;-73
2022/10/28 09:15:23;;;;;;;10.73;5.27;;;18.80;99.90;;;19.33;69.13;101592.53;4884816;29;20433;-72
2022/10/28 09:17:56;;;;;;;8.20;5.63;;;18.80;99.90;;;19.38;68.49;101587.97;4882448;29;20454;-71
2022/10/28 09:20:50;;;;;;;12.37;4.60;;;18.90;99.90;;;19.50;68.38;101580.59;4879989;29;20518;-73
2022/10/28 09:23:24;;;;;;;12.97;5.50;;;19.00;99.90;;;19.72;67.40;101577.97;4881262;29;20435;-73
2022/10/28 09:26:13;;;;;;;5.73;5.20;;;19.30;99.90;;;19.80;66.96;101571.25;4882057;29;20573;-73
2022/10/28 09:28:59;;;;;;;7.97;5.50;;;19.40;99.40;;;19.87;66.45;101569.19;4877238;29;21032;-73
2022/10/28 09:31:35;;;;;;;11.90;7.10;;;19.50;98.20;;;19.92;66.86;101572.84;4884458;29;20530;-73
2022/10/28 09:34:23;;;;;;;7.37;5.30;;;19.50;98.40;;;20.10;65.37;101560.78;4881007;29;20442;-72
2022/10/28 09:36:58;;;;;;;11.50;5.90;;;19.60;97.30;;;19.98;65.97;101564.69;4878048;29;21078;-72
2022/10/28 09:39:42;;;;;;;7.97;4.63;;;19.50;97.40;;;20.03;65.89;101551.88;4892700;29;20624;-72
2022/10/28 09:42:19;;;;;;;11.43;6.10;;;19.60;96.80;;;19.94;65.90;101564.38;4873796;29;20446;-73
2022/10/28 09:44:56;;;;;;;10.00;6.37;;;19.50;96.60;;;19.98;65.89;101565.53;4878735;29;20482;-72
2022/10/28 09:47:34;;;;;;;10.60;5.47;;;19.60;96.60;;;20.01;66.03;101567.78;4880484;29;20410;-72
2022/10/28 09:50:15;;;;;;;6.53;4.37;;;19.70;96.90;;;20.30;65.02;101569.41;4881530;29;20442;-71
2022/10/28 09:52:59;;;;;;;10.40;5.53;;;19.80;96.20;;;20.42;65.15;101563.00;4890402;29;21002;-71
2022/10/28 09:55:28;;;;;;;9.13;7.07;;;20.00;96.00;;;20.64;63.29;101559.19;4884402;29;20721;-72
2022/10/28 09:57:57;;;;;;;7.97;4.40;;;20.10;94.10;;;20.92;62.51;101560.97;4887714;29;20443;-72
2022/10/28 10:00:27;;;;;;;13.97;4.33;;;20.40;92.50;;;20.82;62.45;101550.66;4893380;29;20817;-73
2022/10/28 10:02:58;;;;;;;7.93;5.27;;;20.50;91.90;;;20.62;63.06;101544.06;4885282;29;20802;-72
2022/10/28 10:05:29;;;;;;;10.10;5.07;;;20.20;91.50;;;20.59;63.51;101536.28;4882371;29;20463;-72
2022/10/28 10:08:04;;;;;;;8.83;5.50;;;20.30;91.80;;;20.78;63.02;101543.16;4880910;29;20818;-71
2022/10/28 10:10:46;;;;;;;7.83;5.50;;;20.40;91.70;;;20.81;62.75;101537.19;4881188;29;20569;-71
2022/10/28 10:13:20;;;;;;;7.67;5.10;;;20.40;91.70;;;20.72;62.96;101531.25;4879777;29;20440;-71
2022/10/28 10:15:56;;;;;;;5.13;4.20;;;20.40;91.10;;;20.62;63.63;101530.31;4883860;29;20518;-72
2022/10/28 10:18:31;;;;;;;6.80;5.03;;;20.20;92.10;;;20.57;64.00;101538.47;4887931;29;20442;-72
2022/10/28 10:21:01;;;;;;;6.40;5.13;;;20.30;91.80;;;20.49;63.99;101533.38;4877434;29;20437;-73
2022/10/28 10:23:33;;;;;;;10.50;4.80;;;20.20;91.90;;;20.59;64.08;101530.78;4890230;29;21022;-75
2022/10/28 10:26:08;;;;;;;10.83;5.47;;;20.20;92.40;;;20.73;64.12;101523.84;4886025;29;20518;-73
2022/10/28 10:28:45;;;;;;;9.93;4.67;;;20.30;92.60;;;20.86;63.51;101529.00;4877463;29;20443;-71
2022/10/28 10:31:21;;;;;;;7.77;4.40;;;20.40;92.30;;;20.81;63.26;101523.41;4882142;29;20438;-73
2022/10/28 10:33:52;;;;;;;10.23;5.47;;;20.40;91.50;;;20.86;63.21;101523.50;4883922;29;20464;-71
2022/10/28 10:36:27;;;;;;;5.20;3.80;;;20.50;91.60;;;21.00;62.66;101513.75;4860672;29;20950;-71